MSC Jordan — HPMK — position and weather

sailwx.info

Track history (hours):
 
Tides and Currents Weather Stations Pressure Air Temp Water Temp Dewpoint Dewpoint Depression Visibility Wind Speed Wind Dir Waves Ship Positions

MSC Jordan

Last reported at 2016-Feb-09 09:09 UTC. Time now 2016-Feb-09 10:01 UTC.
Position N 08°57' W 015°42'.

Length 237 m; draft 9.2 m.

Type: Ship. MMSI: 355194000.

Date/timePositionNaut miles runAvg speedWind from/ knotsBaromVisibWave heightAir tempDewpointWater temp
2016-Feb-09 09:09N 08°57' W 015°42'1118.7
2016-Feb-09 08:33N 09°04' W 015°50'1919.2
2016-Feb-09 07:33N 09°15' W 016°06'1918.4
2016-Feb-09 06:32N 09°28' W 016°20'3718.7
2016-Feb-09 04:33N 09°52' W 016°49'  
2016-Feb-04 06:26N 29°15' W 014°60'2017.6
2016-Feb-04 05:17N 29°34' W 014°52'69417.7
2016-Feb-02 14:10N 40°41' W 010°58'1218.0
2016-Feb-02 13:31N 40°52' W 010°54'1918.7
2016-Feb-02 12:30N 41°10' W 010°46'2418.4
2016-Feb-02 11:12N 41°33' W 010°37'1217.7
2016-Feb-02 10:33N 41°44' W 010°33'63214.7
2016-Jan-31 15:24N 49°38' W 000°34'1417.2
2016-Jan-31 14:33N 49°33' W 000°13'1312.7
2016-Jan-31 13:33N 49°29' E 000°05'2 2.4
2016-Jan-31 12:32N 49°28' E 000°09'0 0.0
2016-Jan-31 11:33N 49°28' E 000°09'0 0.0
2016-Jan-31 10:33N 49°28' E 000°09'0 0.0
2016-Jan-31 09:33N 49°28' E 000°09'0 0.0
2016-Jan-31 08:32N 49°28' E 000°09'0 0.0
2016-Jan-31 07:33N 49°28' E 000°09'0 0.0
2016-Jan-31 06:33N 49°28' E 000°09'0 0.0
2016-Jan-31 05:33N 49°28' E 000°09'0 0.0
2016-Jan-31 04:33N 49°28' E 000°09'0 0.0
2016-Jan-31 03:33N 49°28' E 000°09'0 0.0
2016-Jan-31 02:32N 49°28' E 000°09'0 0.0
2016-Jan-31 01:33N 49°28' E 000°09'0 0.0
2016-Jan-31 00:33N 49°28' E 000°09'0 0.0
2016-Jan-30 23:33N 49°28' E 000°09'0 0.0
2016-Jan-30 22:34N 49°28' E 000°09'0 0.0
2016-Jan-30 21:33N 49°28' E 000°09'0 0.0
2016-Jan-30 20:31N 49°28' E 000°09'3 3.4
2016-Jan-30 19:34N 49°29' E 000°04'1111.0
2016-Jan-30 18:33N 49°34' W 000°11'1615.7
2016-Jan-30 17:33N 49°50' W 000°10'5914.7
2016-Jan-30 13:33N 50°38' E 000°43'2417.3
2016-Jan-30 12:11N 50°52' E 001°13'1219.1
2016-Jan-30 11:33N 51°01' E 001°26'2020.0
2016-Jan-30 10:34N 51°15' E 001°48'1918.6
2016-Jan-30 09:34N 51°34' E 001°47'  
Track history (hours):
 
Tides and Currents Weather Stations Pressure Air Temp Water Temp Dewpoint Dewpoint Depression Visibility Wind Speed Wind Dir Waves Ship Positions

MSC Jordan

Last reported at 2016-Feb-09 09:09 UTC. Time now 2016-Feb-09 10:01 UTC.
Position N 08°57' W 015°42'.

Length 237 m; draft 9.2 m.

Type: Ship. MMSI: 355194000.

Date/timePositionNaut miles runAvg speedWind from/ knotsBaromVisibWave heightAir tempDewpointWater temp
2016-Feb-09 09:09N 08°57' W 015°42'1118.7
2016-Feb-09 08:33N 09°04' W 015°50'1919.2
2016-Feb-09 07:33N 09°15' W 016°06'1918.4
2016-Feb-09 06:32N 09°28' W 016°20'3718.7
2016-Feb-09 04:33N 09°52' W 016°49'  
2016-Feb-04 06:26N 29°15' W 014°60'2017.6
2016-Feb-04 05:17N 29°34' W 014°52'69417.7
2016-Feb-02 14:10N 40°41' W 010°58'1218.0
2016-Feb-02 13:31N 40°52' W 010°54'1918.7
2016-Feb-02 12:30N 41°10' W 010°46'2418.4
2016-Feb-02 11:12N 41°33' W 010°37'1217.7
2016-Feb-02 10:33N 41°44' W 010°33'63214.7
2016-Jan-31 15:24N 49°38' W 000°34'1417.2
2016-Jan-31 14:33N 49°33' W 000°13'1312.7
2016-Jan-31 13:33N 49°29' E 000°05'2 2.4
2016-Jan-31 12:32N 49°28' E 000°09'0 0.0
2016-Jan-31 11:33N 49°28' E 000°09'0 0.0
2016-Jan-31 10:33N 49°28' E 000°09'0 0.0
2016-Jan-31 09:33N 49°28' E 000°09'0 0.0
2016-Jan-31 08:32N 49°28' E 000°09'0 0.0
2016-Jan-31 07:33N 49°28' E 000°09'0 0.0
2016-Jan-31 06:33N 49°28' E 000°09'0 0.0
2016-Jan-31 05:33N 49°28' E 000°09'0 0.0
2016-Jan-31 04:33N 49°28' E 000°09'0 0.0
2016-Jan-31 03:33N 49°28' E 000°09'0 0.0
2016-Jan-31 02:32N 49°28' E 000°09'0 0.0
2016-Jan-31 01:33N 49°28' E 000°09'0 0.0
2016-Jan-31 00:33N 49°28' E 000°09'0 0.0
2016-Jan-30 23:33N 49°28' E 000°09'0 0.0
2016-Jan-30 22:34N 49°28' E 000°09'0 0.0
2016-Jan-30 21:33N 49°28' E 000°09'0 0.0
2016-Jan-30 20:31N 49°28' E 000°09'3 3.4
2016-Jan-30 19:34N 49°29' E 000°04'1111.0
2016-Jan-30 18:33N 49°34' W 000°11'1615.7
2016-Jan-30 17:33N 49°50' W 000°10'5914.7
2016-Jan-30 13:33N 50°38' E 000°43'2417.3
2016-Jan-30 12:11N 50°52' E 001°13'1219.1
2016-Jan-30 11:33N 51°01' E 001°26'2020.0
2016-Jan-30 10:34N 51°15' E 001°48'1918.6
2016-Jan-30 09:34N 51°34' E 001°47'  

Dump ship's entire track history